Terminal Aerodrome Forecast
Issued by NWS

Home | Current Version | Previous Version | Text Only | Print | Product List | Glossary On
Versions: 1 2 3 4 5 6 7 8 9 10 11 12 13 14 15
000
FTUS45 KTFX 190520
TAFLWT
TAF
KLWT 190520Z 1906/2006 27008KT P6SM BKN070
     FM190900 24006KT P6SM SCT070
     FM191800 32011KT P6SM BKN060=

USA.gov is the U.S. government's official web portal to all federal, state and local government web resources and services.